Time;durP1;ratioP1;P1;durP2;ratioP2;P2;SDS_P1;SDS_P2;PMS_P1;PMS_P2;Temp;Humidity;BMP_temperature;BMP_pressure;BME280_temperature;BME280_humidity;BME280_pressure;Samples;Min_cycle;Max_cycle;Signal;HPM_P1;HPM_P2
2023/12/27 00:02:00;;;;;;;7.70;2.97;;;;;;;8.05;93.00;96129.25;5008292;28;20201;-78
2023/12/27 00:04:25;;;;;;;3.57;2.47;;;;;;;8.01;93.14;96129.59;5003560;28;20204;-78
2023/12/27 00:06:52;;;;;;;0.97;0.80;;;;;;;7.90;94.24;96133.84;4983630;28;20401;-77
2023/12/27 00:09:17;;;;;;;1.03;0.93;;;;;;;8.02;93.61;96126.88;5002273;28;20175;-78
2023/12/27 00:11:43;;;;;;;0.77;0.77;;;;;;;8.11;92.92;96126.19;5001484;28;20191;-76
2023/12/27 00:14:08;;;;;;;1.13;0.80;;;;;;;8.08;93.08;96128.19;4998034;28;20203;-77
2023/12/27 00:16:33;;;;;;;1.67;0.90;;;;;;;8.14;92.79;96130.31;5005950;28;20211;-78
2023/12/27 00:18:59;;;;;;;2.50;0.90;;;;;;;8.12;93.19;96134.75;5001342;28;20685;-78
2023/12/27 00:21:24;;;;;;;0.97;0.90;;;;;;;8.09;93.10;96135.84;5004093;28;20203;-77
2023/12/27 00:23:49;;;;;;;1.67;0.93;;;;;;;8.06;93.35;96127.50;5000321;28;20188;-77
2023/12/27 00:26:15;;;;;;;1.60;1.20;;;;;;;7.78;95.36;96103.75;5005614;28;20225;-78
2023/12/27 00:28:40;;;;;;;1.40;1.30;;;;;;;8.06;94.06;96112.81;4987188;28;20204;-77
2023/12/27 00:31:05;;;;;;;2.93;2.30;;;;;;;8.07;93.88;96118.78;5005367;28;20180;-77
2023/12/27 00:33:31;;;;;;;6.17;2.90;;;;;;;8.06;93.44;96105.03;5005927;28;20184;-78
2023/12/27 00:35:56;;;;;;;3.10;2.80;;;;;;;8.07;93.27;96109.28;4984746;28;20200;-77
2023/12/27 00:38:21;;;;;;;2.00;1.90;;;;;;;8.13;93.38;96116.56;4986522;28;20196;-78
2023/12/27 00:40:47;;;;;;;4.90;2.07;;;;;;;8.15;93.05;96113.84;5004306;28;20196;-78
2023/12/27 00:43:12;;;;;;;2.80;1.80;;;;;;;8.13;93.05;96113.97;4989237;28;20187;-77
2023/12/27 00:45:37;;;;;;;2.20;1.70;;;;;;;8.11;93.14;96115.00;5003040;28;20181;-79
2023/12/27 00:48:03;;;;;;;1.70;1.60;;;;;;;8.07;93.86;96118.78;5004706;28;20681;-77
2023/12/27 00:50:28;;;;;;;3.13;1.57;;;;;;;7.97;92.73;96108.34;4982901;28;20724;-77
2023/12/27 00:52:54;;;;;;;5.63;1.50;;;;;;;8.05;92.23;96115.50;4992346;28;20267;-79
2023/12/27 00:55:19;;;;;;;2.37;1.70;;;;;;;7.97;92.24;96113.50;5002838;28;20215;-78
2023/12/27 00:57:44;;;;;;;4.53;2.10;;;;;;;7.99;92.33;96114.22;5000619;28;20207;-77
2023/12/27 01:00:10;;;;;;;2.63;2.10;;;;;;;8.03;92.73;96117.38;5007988;28;20218;-78
2023/12/27 01:02:36;;;;;;;4.10;2.40;;;;;;;7.92;92.60;96113.03;5008432;28;20238;-78
2023/12/27 01:05:01;;;;;;;4.40;1.90;;;;;;;7.87;92.74;96117.75;4989361;28;20206;-77
2023/12/27 01:07:27;;;;;;;2.37;1.73;;;;;;;7.82;92.90;96122.44;4991995;28;20681;-78
2023/12/27 01:09:52;;;;;;;3.20;1.90;;;;;;;7.86;92.91;96116.06;4992437;28;20246;-79
2023/12/27 01:12:18;;;;;;;3.60;2.00;;;;;;;7.83;92.75;96121.47;5008861;28;20275;-79
2023/12/27 01:14:43;;;;;;;5.37;2.70;;;;;;;7.83;92.63;96117.13;5005543;28;20202;-77
2023/12/27 01:17:09;;;;;;;4.30;2.10;;;;;;;7.75;93.90;96123.81;5013814;28;20239;-78
2023/12/27 01:19:35;;;;;;;5.93;2.40;;;;;;;7.77;93.44;96117.59;5004332;28;20196;-78
2023/12/27 01:22:00;;;;;;;5.80;2.40;;;;;;;7.80;93.14;96111.38;4991145;28;20189;-78
2023/12/27 01:24:25;;;;;;;4.23;2.20;;;;;;;7.59;93.79;96106.88;5003845;28;20270;-79
2023/12/27 01:26:51;;;;;;;4.27;2.10;;;;;;;7.69;93.82;96108.81;4992499;28;20218;-78
2023/12/27 01:29:16;;;;;;;4.87;2.27;;;;;;;7.58;93.70;96105.25;5004314;28;20292;-78
2023/12/27 01:31:41;;;;;;;4.30;2.17;;;;;;;7.72;93.14;96103.38;4986740;28;20188;-79
2023/12/27 01:34:07;;;;;;;6.50;2.27;;;;;;;7.55;93.75;96102.91;5006441;28;20222;-78
2023/12/27 01:36:32;;;;;;;5.80;2.10;;;;;;;7.65;93.59;96113.34;5005226;28;20282;-78
2023/12/27 01:38:57;;;;;;;5.07;1.93;;;;;;;7.55;93.98;96105.47;4987065;28;20195;-79
2023/12/27 01:41:23;;;;;;;6.43;2.43;;;;;;;7.60;93.45;96111.13;5006317;28;20214;-79
2023/12/27 01:43:48;;;;;;;3.97;2.50;;;;;;;7.57;93.89;96110.53;5005309;28;20184;-77
2023/12/27 01:46:14;;;;;;;3.00;2.07;;;;;;;7.47;94.60;96109.56;5005400;28;20199;-77
2023/12/27 01:48:41;;;;;;;4.73;2.43;;;;;;;7.55;94.21;96110.66;5002141;28;20223;-79
2023/12/27 01:51:06;;;;;;;4.87;2.20;;;;;;;7.42;95.15;96106.50;5008225;28;20184;-78
2023/12/27 01:53:32;;;;;;;5.10;2.80;;;;;;;7.48;95.34;96112.03;5021014;28;20198;-77
2023/12/27 01:55:57;;;;;;;4.33;2.40;;;;;;;7.50;95.05;96110.16;5005165;28;20242;-79
2023/12/27 01:58:22;;;;;;;4.77;2.40;;;;;;;7.65;94.04;96119.34;5004280;28;20168;-79
2023/12/27 02:00:48;;;;;;;2.97;2.23;;;;;;;7.68;93.87;96110.53;5005047;28;20183;-77
2023/12/27 02:03:14;;;;;;;6.93;2.37;;;;;;;7.57;94.30;96115.69;5007978;28;20176;-79
2023/12/27 02:05:40;;;;;;;5.27;2.37;;;;;;;7.59;94.37;96117.22;5001556;28;20206;-77
2023/12/27 02:08:07;;;;;;;4.03;2.00;;;;;;;7.60;94.12;96105.97;4986974;28;20701;-79
2023/12/27 02:10:32;;;;;;;4.90;2.23;;;;;;;7.51;94.25;96101.50;5004066;28;20184;-77
2023/12/27 02:13:05;;;;;;;4.47;2.03;;;;;;;7.52;94.28;96110.06;5004526;28;20251;-78
2023/12/27 02:15:31;;;;;;;4.77;1.87;;;;;;;7.49;95.04;96107.69;4989228;28;20191;-77
2023/12/27 02:17:59;;;;;;;3.93;1.80;;;;;;;7.59;94.21;96101.72;4990107;28;20209;-79
2023/12/27 02:20:25;;;;;;;4.53;2.40;;;;;;;7.49;94.69;96100.75;5004760;28;20583;-77
2023/12/27 02:22:52;;;;;;;4.57;1.90;;;;;;;7.41;94.74;96097.94;5003501;28;20203;-77
2023/12/27 02:25:18;;;;;;;2.70;1.87;;;;;;;7.45;94.38;96103.72;4989056;28;20183;-78
2023/12/27 02:27:45;;;;;;;6.17;2.93;;;;;;;7.53;94.38;96102.19;5005793;28;20215;-79
2023/12/27 02:30:20;;;;;;;4.63;1.70;;;;;;;7.61;94.21;96097.28;4986648;28;20194;-77
2023/12/27 02:32:50;;;;;;;5.13;2.00;;;;;;;7.58;93.87;96107.81;5003089;28;20179;-78
2023/12/27 02:35:16;;;;;;;2.67;1.83;;;;;;;7.66;93.66;96095.16;4986948;28;20210;-78
2023/12/27 02:37:41;;;;;;;2.77;1.60;;;;;;;7.72;93.82;96093.03;4988272;28;20203;-78
2023/12/27 02:40:07;;;;;;;2.27;1.53;;;;;;;7.71;93.05;96089.66;4986980;28;20208;-78
2023/12/27 02:42:33;;;;;;;2.80;1.77;;;;;;;7.63;93.46;96085.06;4989891;28;20202;-78
2023/12/27 02:44:58;;;;;;;1.87;1.50;;;;;;;7.75;93.27;96077.28;5003722;28;20187;-79
2023/12/27 02:47:23;;;;;;;3.77;1.50;;;;;;;7.67;93.26;96075.28;5003231;28;20296;-78
2023/12/27 02:49:49;;;;;;;2.00;1.70;;;;;;;7.73;93.41;96076.59;4984862;28;20199;-79
2023/12/27 02:52:14;;;;;;;2.10;1.60;;;;;;;7.74;93.33;96080.81;5009785;28;20187;-79
2023/12/27 02:54:39;;;;;;;6.60;1.90;;;;;;;7.57;93.98;96066.59;4987777;28;20215;-78
2023/12/27 02:57:05;;;;;;;5.47;1.90;;;;;;;7.55;94.44;96066.72;4987537;28;20214;-78
2023/12/27 02:59:30;;;;;;;3.30;1.73;;;;;;;7.48;95.18;96070.69;4985237;28;20187;-79
2023/12/27 03:01:55;;;;;;;2.00;1.50;;;;;;;7.42;95.10;96066.00;5008207;28;20184;-78
2023/12/27 03:04:21;;;;;;;2.80;1.80;;;;;;;7.41;94.93;96064.34;5004082;28;20203;-78
2023/12/27 03:06:46;;;;;;;4.33;1.93;;;;;;;7.35;95.35;96064.81;5002329;28;20776;-78
2023/12/27 03:09:12;;;;;;;3.07;1.70;;;;;;;7.41;95.55;96056.59;4988263;28;20576;-77
2023/12/27 03:11:37;;;;;;;5.13;1.40;;;;;;;7.38;95.48;96062.00;5003110;28;20188;-77
2023/12/27 03:14:03;;;;;;;1.80;1.30;;;;;;;7.32;95.92;96059.84;5003615;28;20249;-78
2023/12/27 03:16:29;;;;;;;2.40;1.43;;;;;;;7.43;94.87;96057.31;4991154;28;20269;-78
2023/12/27 03:18:54;;;;;;;1.60;1.40;;;;;;;7.40;95.31;96060.09;5003900;28;20708;-78
2023/12/27 03:21:20;;;;;;;3.03;1.50;;;;;;;7.33;95.55;96053.75;4986769;28;20302;-78
2023/12/27 03:23:46;;;;;;;4.90;2.07;;;;;;;7.21;96.11;96054.69;5001539;28;20192;-78
2023/12/27 03:26:12;;;;;;;3.20;1.80;;;;;;;7.28;95.38;96043.78;4989340;28;20764;-78
2023/12/27 03:28:37;;;;;;;3.10;1.70;;;;;;;7.34;94.51;96047.69;4986791;28;20238;-78
2023/12/27 03:31:02;;;;;;;2.13;1.50;;;;;;;7.24;94.54;96046.69;4997291;28;20184;-78
2023/12/27 03:33:28;;;;;;;2.30;1.50;;;;;;;7.36;94.29;96050.97;4984294;28;20206;-78
2023/12/27 03:35:53;;;;;;;3.00;1.77;;;;;;;7.21;94.22;96047.75;4986987;28;20192;-79
2023/12/27 03:38:18;;;;;;;2.90;1.77;;;;;;;7.19;94.05;96046.22;5003932;28;20412;-79
2023/12/27 03:40:44;;;;;;;4.90;1.83;;;;;;;7.16;95.03;96047.28;5002573;28;20239;-78
2023/12/27 03:43:09;;;;;;;2.53;1.70;;;;;;;7.20;94.16;96053.03;4990014;28;20187;-78
2023/12/27 03:45:36;;;;;;;2.67;1.40;;;;;;;7.16;94.47;96052.47;4986684;28;20191;-78
2023/12/27 03:48:01;;;;;;;1.70;1.60;;;;;;;7.27;94.11;96047.31;5002619;28;20214;-79
2023/12/27 03:50:26;;;;;;;2.73;1.53;;;;;;;7.19;94.28;96051.41;5003778;28;20191;-78
2023/12/27 03:52:52;;;;;;;1.63;1.53;;;;;;;7.16;94.10;96033.56;4989658;28;20211;-76
2023/12/27 03:55:18;;;;;;;2.37;1.60;;;;;;;7.13;93.77;96028.59;5002081;28;20223;-79
2023/12/27 03:57:43;;;;;;;3.07;1.60;;;;;;;7.08;93.38;96029.78;5000788;28;20232;-80
2023/12/27 04:00:12;;;;;;;3.03;1.50;;;;;;;7.02;93.34;96024.25;5005602;28;20187;-78
2023/12/27 04:02:37;;;;;;;3.90;1.43;;;;;;;6.99;93.27;96027.06;5001545;28;20271;-79
2023/12/27 04:05:03;;;;;;;2.83;1.30;;;;;;;6.93;93.55;96020.59;4999705;28;20696;-78
2023/12/27 04:07:29;;;;;;;3.33;1.20;;;;;;;6.85;93.52;96024.66;5002582;28;20212;-78
2023/12/27 04:09:55;;;;;;;1.47;1.23;;;;;;;6.82;93.44;96026.53;4985399;28;20210;-79
2023/12/27 04:12:20;;;;;;;3.37;1.63;;;;;;;6.77;93.83;96027.81;5004261;28;20194;-78
2023/12/27 04:14:45;;;;;;;3.47;1.90;;;;;;;6.78;93.89;96016.53;4985084;28;20211;-79
2023/12/27 04:17:11;;;;;;;1.70;1.60;;;;;;;6.81;93.84;96024.09;5004585;28;20216;-78
2023/12/27 04:19:36;;;;;;;2.63;1.47;;;;;;;6.84;93.99;96021.25;4984472;28;20612;-78
2023/12/27 04:22:01;;;;;;;2.70;1.57;;;;;;;6.90;93.77;96020.81;5004220;28;20195;-80
2023/12/27 04:24:27;;;;;;;3.60;1.90;;;;;;;6.85;93.47;96009.19;4999511;28;20218;-79
2023/12/27 04:26:52;;;;;;;3.27;1.70;;;;;;;6.88;93.54;96002.00;4989410;28;20215;-80
2023/12/27 04:29:17;;;;;;;2.03;1.43;;;;;;;6.84;93.65;96008.34;5001801;28;20239;-79
2023/12/27 04:31:43;;;;;;;2.63;1.70;;;;;;;6.87;94.01;96002.13;4979507;28;20252;-77
2023/12/27 04:34:08;;;;;;;4.33;1.37;;;;;;;6.97;93.27;96001.31;4997197;28;20187;-77
2023/12/27 04:36:35;;;;;;;1.60;1.50;;;;;;;6.97;93.54;96008.25;4981484;28;20211;-77
2023/12/27 04:39:00;;;;;;;3.83;1.50;;;;;;;6.96;93.51;96006.63;4986704;28;20202;-78
2023/12/27 04:41:25;;;;;;;2.37;1.53;;;;;;;7.00;93.30;96006.28;4984891;28;20184;-80
2023/12/27 04:43:53;;;;;;;2.53;1.30;;;;;;;6.98;93.45;96009.91;5006710;28;20661;-76
2023/12/27 04:46:19;;;;;;;4.53;1.40;;;;;;;7.03;93.25;96002.66;5002831;28;20202;-77
2023/12/27 04:48:44;;;;;;;2.07;1.60;;;;;;;7.00;93.15;96008.88;5002971;28;20235;-77
2023/12/27 04:51:09;;;;;;;2.30;1.50;;;;;;;6.97;93.51;96016.00;4988702;28;20206;-77
2023/12/27 04:53:35;;;;;;;3.23;1.93;;;;;;;7.09;92.97;96017.69;5004573;28;20226;-76
2023/12/27 04:56:00;;;;;;;2.77;1.67;;;;;;;7.08;92.93;96016.88;4987156;28;20187;-77
2023/12/27 04:58:25;;;;;;;2.07;1.67;;;;;;;7.07;92.91;96011.81;5004176;28;20188;-79
2023/12/27 05:00:51;;;;;;;2.13;1.50;;;;;;;7.12;93.00;96017.44;5003246;28;20214;-78
2023/12/27 05:03:16;;;;;;;1.33;1.23;;;;;;;7.16;92.51;96008.56;5007376;28;20557;-80
2023/12/27 05:05:41;;;;;;;3.60;1.60;;;;;;;7.14;92.53;96005.22;5003989;28;20188;-78
2023/12/27 05:08:07;;;;;;;4.53;1.63;;;;;;;7.10;92.54;96004.66;4990169;28;20298;-80
2023/12/27 05:10:32;;;;;;;2.63;1.57;;;;;;;7.14;92.07;96005.22;5004395;28;20199;-79
2023/12/27 05:12:57;;;;;;;2.47;1.60;;;;;;;7.13;91.88;96018.28;4990428;28;20287;-77
2023/12/27 05:15:23;;;;;;;5.77;2.27;;;;;;;7.21;91.57;96005.59;4985930;28;20211;-77
2023/12/27 05:17:48;;;;;;;2.80;1.60;;;;;;;7.17;91.49;96010.19;5007764;28;20204;-77
2023/12/27 05:20:13;;;;;;;3.83;2.00;;;;;;;7.19;91.24;95997.97;5004822;28;20188;-79
2023/12/27 05:22:39;;;;;;;6.77;1.63;;;;;;;7.12;91.43;95995.97;5004380;28;20191;-78
2023/12/27 05:25:06;;;;;;;5.00;1.97;;;;;;;7.16;91.45;95994.81;5002994;28;20194;-78
2023/12/27 05:27:31;;;;;;;3.83;2.20;;;;;;;7.06;91.38;95992.06;5006974;28;20299;-77
2023/12/27 05:29:58;;;;;;;4.53;2.10;;;;;;;7.10;91.49;95994.31;5002881;28;20258;-79
2023/12/27 05:32:23;;;;;;;2.07;1.70;;;;;;;6.99;91.36;95996.91;4999218;28;20239;-79
2023/12/27 05:34:49;;;;;;;2.03;1.83;;;;;;;6.92;91.41;95992.31;5005302;28;20605;-78
2023/12/27 05:37:14;;;;;;;2.90;1.77;;;;;;;6.93;91.51;95993.94;5006591;28;20207;-79
2023/12/27 05:39:39;;;;;;;3.70;1.60;;;;;;;6.87;91.24;95984.06;5004847;28;20195;-79
2023/12/27 05:42:05;;;;;;;2.63;1.83;;;;;;;6.88;91.25;95990.88;4988638;28;20267;-78
2023/12/27 05:44:30;;;;;;;3.57;1.80;;;;;;;6.83;90.97;95983.47;5005098;28;20192;-77
2023/12/27 05:46:56;;;;;;;1.80;1.70;;;;;;;6.78;90.99;95983.00;4987651;28;20216;-78
2023/12/27 05:49:21;;;;;;;3.10;1.70;;;;;;;6.75;91.20;95978.06;5003991;28;20260;-78
2023/12/27 05:51:46;;;;;;;2.63;1.53;;;;;;;6.69;91.38;95978.50;5004599;28;20621;-79
2023/12/27 05:54:13;;;;;;;2.30;1.50;;;;;;;6.69;91.63;95983.66;5007564;28;20263;-77
2023/12/27 05:56:39;;;;;;;4.17;2.30;;;;;;;6.71;91.77;95977.44;4987003;28;20207;-78
2023/12/27 05:59:05;;;;;;;7.97;3.37;;;;;;;6.66;91.21;95976.16;5003554;28;20230;-78
2023/12/27 06:01:30;;;;;;;4.63;2.53;;;;;;;6.60;91.46;95979.19;5002469;28;20188;-78
2023/12/27 06:03:55;;;;;;;3.17;1.90;;;;;;;6.58;91.67;95978.47;5003846;28;20211;-78
2023/12/27 06:06:21;;;;;;;3.27;2.10;;;;;;;6.53;91.92;95973.66;4985531;28;20238;-77
2023/12/27 06:08:46;;;;;;;3.47;1.87;;;;;;;6.54;91.29;95975.31;5003838;28;20788;-77
2023/12/27 06:11:12;;;;;;;4.20;2.50;;;;;;;6.51;91.30;95971.19;5005478;28;20194;-79
2023/12/27 06:13:40;;;;;;;3.63;2.23;;;;;;;6.45;91.56;95963.09;5004524;28;20203;-79
2023/12/27 06:16:06;;;;;;;3.33;1.80;;;;;;;6.45;91.18;95942.44;4989050;28;20224;-78
2023/12/27 06:18:32;;;;;;;3.07;2.00;;;;;;;6.39;91.55;95943.72;5006620;28;20645;-78
2023/12/27 06:20:57;;;;;;;3.80;2.10;;;;;;;6.31;91.58;95946.03;5012129;28;20205;-78
2023/12/27 06:23:22;;;;;;;2.60;2.00;;;;;;;6.24;92.01;95960.28;5010552;28;20728;-77
2023/12/27 06:25:48;;;;;;;5.40;2.20;;;;;;;6.25;91.21;95961.94;5007902;28;20180;-78
2023/12/27 06:28:13;;;;;;;4.63;2.33;;;;;;;6.19;91.04;95967.56;4994320;28;20207;-78
2023/12/27 06:30:38;;;;;;;4.47;2.50;;;;;;;6.15;91.35;95972.09;5004518;28;20191;-78
2023/12/27 06:33:04;;;;;;;3.57;2.30;;;;;;;6.14;91.17;95974.78;5007032;28;20177;-78
2023/12/27 06:35:29;;;;;;;4.20;1.90;;;;;;;6.18;91.93;95979.63;4990977;28;20187;-78
2023/12/27 06:37:54;;;;;;;3.17;2.47;;;;;;;6.13;91.37;95961.06;4993997;28;20212;-79
2023/12/27 06:40:20;;;;;;;5.27;2.90;;;;;;;6.10;92.40;95958.72;5006757;28;20183;-79
2023/12/27 06:42:45;;;;;;;6.07;2.23;;;;;;;6.14;92.50;95961.91;5008325;28;20184;-78
2023/12/27 06:45:10;;;;;;;5.40;2.83;;;;;;;6.17;92.05;95947.00;4989137;28;20199;-79
2023/12/27 06:47:36;;;;;;;5.03;2.57;;;;;;;6.17;92.45;95962.47;4991402;28;20250;-77
2023/12/27 06:50:03;;;;;;;3.30;2.43;;;;;;;6.20;92.37;95958.88;5004659;28;20637;-78
2023/12/27 06:52:29;;;;;;;6.67;2.50;;;;;;;6.18;92.23;95964.16;5009583;28;20186;-79
2023/12/27 06:54:54;;;;;;;6.37;2.33;;;;;;;6.14;92.55;95962.72;5005577;28;20184;-79
2023/12/27 06:57:19;;;;;;;4.57;2.33;;;;;;;6.20;92.68;95964.03;4988418;28;20221;-78
2023/12/27 06:59:46;;;;;;;4.23;2.83;;;;;;;6.13;93.34;95971.38;4985972;28;20219;-77
2023/12/27 07:02:11;;;;;;;4.30;2.63;;;;;;;6.07;92.93;95966.66;4991826;28;20191;-78
2023/12/27 07:04:37;;;;;;;3.93;2.20;;;;;;;6.09;93.61;95962.22;5003095;28;20571;-77
2023/12/27 07:07:03;;;;;;;6.70;2.70;;;;;;;6.11;93.05;95956.97;5004901;28;20210;-78
2023/12/27 07:09:28;;;;;;;6.40;2.57;;;;;;;6.12;93.37;95958.59;5004915;28;20215;-79
2023/12/27 07:11:53;;;;;;;6.03;4.10;;;;;;;6.11;93.27;95954.38;4988981;28;20224;-78
2023/12/27 07:14:19;;;;;;;5.63;2.90;;;;;;;6.00;94.51;95946.56;5006924;28;20211;-78
2023/12/27 07:16:44;;;;;;;7.70;2.50;;;;;;;6.10;93.15;95950.16;4989958;28;20214;-79
2023/12/27 07:19:10;;;;;;;5.53;2.80;;;;;;;6.01;93.80;95945.66;5006094;28;20183;-79
2023/12/27 07:21:35;;;;;;;4.27;2.43;;;;;;;6.16;93.13;95944.56;5005931;28;20194;-79
2023/12/27 07:24:00;;;;;;;3.40;2.27;;;;;;;6.17;93.25;95948.78;5002484;28;20187;-77
2023/12/27 07:26:26;;;;;;;4.27;2.57;;;;;;;6.22;92.52;95947.50;5002518;28;20230;-78
2023/12/27 07:28:51;;;;;;;3.73;2.10;;;;;;;6.29;92.26;95947.91;5002503;28;20195;-77
2023/12/27 07:31:16;;;;;;;5.33;2.30;;;;;;;6.19;92.22;95950.31;4999711;28;20207;-78
2023/12/27 07:33:42;;;;;;;2.60;2.40;;;;;;;6.10;92.73;95953.56;5000227;28;20680;-78
2023/12/27 07:36:08;;;;;;;2.63;2.20;;;;;;;6.19;92.16;95949.50;4986833;28;20207;-76
2023/12/27 07:38:33;;;;;;;3.00;2.43;;;;;;;6.10;92.54;95952.75;4997602;28;20315;-79
2023/12/27 07:40:59;;;;;;;5.17;2.40;;;;;;;6.05;92.24;95959.97;4982256;28;20239;-78
2023/12/27 07:43:25;;;;;;;6.90;2.73;;;;;;;6.16;91.83;95965.19;5003306;28;20187;-78
2023/12/27 07:45:50;;;;;;;4.97;2.47;;;;;;;6.23;91.83;95956.06;4984899;28;20271;-78
2023/12/27 07:48:16;;;;;;;7.17;3.60;;;;;;;6.23;91.02;95962.06;5000002;28;20223;-78
2023/12/27 07:50:42;;;;;;;4.30;2.67;;;;;;;6.25;91.60;95960.19;4991807;28;20259;-80
2023/12/27 07:53:08;;;;;;;7.13;3.37;;;;;;;6.28;90.89;95959.16;5021095;28;20195;-78
2023/12/27 07:55:33;;;;;;;6.97;3.00;;;;;;;6.36;90.14;95972.31;4995934;28;20587;-79
2023/12/27 07:57:59;;;;;;;4.67;2.70;;;;;;;6.42;90.12;95968.44;4983619;28;20231;-79
2023/12/27 08:00:24;;;;;;;5.63;3.07;;;;;;;6.35;89.38;95970.66;4981971;28;20618;-78
2023/12/27 08:02:49;;;;;;;4.93;3.50;;;;;;;6.36;89.21;95987.78;5004729;28;21066;-79
2023/12/27 08:05:15;;;;;;;3.80;2.87;;;;;;;6.31;89.30;95984.72;4983008;28;20536;-76
2023/12/27 08:07:41;;;;;;;5.37;3.03;;;;;;;6.29;89.61;95994.31;4999943;28;20302;-77
2023/12/27 08:10:07;;;;;;;5.47;3.03;;;;;;;6.42;89.22;95981.34;5001338;28;20256;-76
2023/12/27 08:12:32;;;;;;;4.47;2.97;;;;;;;6.49;89.19;95979.97;4999886;28;20279;-76
2023/12/27 08:14:58;;;;;;;4.27;2.63;;;;;;;6.52;88.75;95977.97;4996919;28;20186;-78
2023/12/27 08:17:23;;;;;;;8.63;3.17;;;;;;;6.52;88.93;95983.13;4999851;28;20238;-79
2023/12/27 08:19:48;;;;;;;3.97;2.53;;;;;;;6.60;89.12;95977.44;4999120;28;20192;-76
2023/12/27 08:22:14;;;;;;;3.90;2.70;;;;;;;6.70;88.35;95980.97;5002657;28;20226;-78
2023/12/27 08:24:39;;;;;;;4.87;3.13;;;;;;;6.77;88.41;95981.34;5000953;28;20199;-78
2023/12/27 08:27:05;;;;;;;6.80;3.17;;;;;;;6.77;87.87;95971.03;4989854;28;20239;-77
2023/12/27 08:29:30;;;;;;;3.67;2.80;;;;;;;6.72;87.23;95973.13;5004220;28;20288;-78
2023/12/27 08:31:55;;;;;;;4.50;2.83;;;;;;;6.74;87.71;95972.06;4985632;28;20187;-78
2023/12/27 08:34:21;;;;;;;6.60;2.97;;;;;;;6.67;87.75;95962.31;5002735;28;20672;-77
2023/12/27 08:36:48;;;;;;;4.57;2.60;;;;;;;6.78;87.38;95946.84;4987816;28;20235;-78
2023/12/27 08:39:14;;;;;;;5.17;2.37;;;;;;;6.69;86.91;95942.38;4985744;28;20597;-77
2023/12/27 08:41:39;;;;;;;5.37;2.53;;;;;;;6.50;87.04;95942.91;5001938;28;20195;-77
2023/12/27 08:44:05;;;;;;;4.50;2.40;;;;;;;6.42;87.24;95930.56;5004143;28;20207;-76
2023/12/27 08:46:30;;;;;;;4.00;2.50;;;;;;;6.60;85.92;95922.41;4987157;28;20207;-78
2023/12/27 08:48:55;;;;;;;5.40;2.43;;;;;;;6.49;86.34;95908.56;4984979;28;20214;-77
2023/12/27 08:51:21;;;;;;;5.40;2.57;;;;;;;6.49;85.82;95903.41;5000563;28;20273;-77
2023/12/27 08:53:46;;;;;;;4.40;2.57;;;;;;;6.61;85.65;95904.22;5004970;28;20183;-77
2023/12/27 08:56:12;;;;;;;6.43;2.70;;;;;;;6.58;85.46;95924.28;5004116;28;20237;-77
2023/12/27 08:58:37;;;;;;;5.53;3.10;;;;;;;6.58;85.80;95937.19;4985668;28;20188;-76
2023/12/27 09:01:03;;;;;;;5.30;3.30;;;;;;;6.55;85.68;95935.66;4987420;28;20186;-78
2023/12/27 09:03:28;;;;;;;4.70;2.63;;;;;;;6.62;85.45;95929.09;5005945;28;20187;-76
2023/12/27 09:05:54;;;;;;;5.07;2.67;;;;;;;6.56;86.05;95931.34;5010543;28;20187;-78
2023/12/27 09:08:19;;;;;;;5.23;3.10;;;;;;;6.66;85.84;95930.53;5012910;28;20553;-77
2023/12/27 09:10:44;;;;;;;3.40;2.70;;;;;;;6.63;85.68;95917.88;4993810;28;20249;-78
2023/12/27 09:13:10;;;;;;;2.70;2.50;;;;;;;6.65;85.87;95910.00;5013088;28;20183;-79
2023/12/27 09:15:35;;;;;;;3.53;2.33;;;;;;;6.76;85.70;95917.75;4992624;28;20179;-77
2023/12/27 09:18:01;;;;;;;5.27;2.70;;;;;;;6.86;85.19;95915.31;5010906;28;20222;-77
2023/12/27 09:20:26;;;;;;;6.43;2.43;;;;;;;6.97;85.04;95910.97;5008992;28;20251;-78
2023/12/27 09:22:52;;;;;;;4.33;2.43;;;;;;;6.98;84.45;95909.19;5010949;28;20293;-77
2023/12/27 09:25:17;;;;;;;3.93;2.70;;;;;;;6.98;84.56;95916.94;5006125;28;20186;-77
2023/12/27 09:27:44;;;;;;;4.37;2.53;;;;;;;7.18;84.52;95912.88;4994603;28;20281;-78
2023/12/27 09:30:10;;;;;;;5.17;2.63;;;;;;;7.19;84.42;95914.50;4992070;28;20217;-77
2023/12/27 09:32:37;;;;;;;4.00;2.80;;;;;;;7.19;84.40;95914.50;4989535;28;20737;-78
2023/12/27 09:35:03;;;;;;;4.80;2.90;;;;;;;7.16;83.98;95912.16;5005713;28;20642;-78
2023/12/27 09:37:29;;;;;;;7.63;2.30;;;;;;;7.16;83.69;95931.06;5010156;28;20207;-78
2023/12/27 09:39:55;;;;;;;5.13;2.57;;;;;;;7.21;83.07;95925.53;4990432;28;20215;-79
2023/12/27 09:42:20;;;;;;;3.70;2.50;;;;;;;7.25;83.13;95929.53;4987728;28;20190;-78
2023/12/27 09:44:48;;;;;;;4.17;2.83;;;;;;;7.42;82.58;95934.22;5007410;28;20180;-78
2023/12/27 09:47:15;;;;;;;3.53;2.53;;;;;;;7.35;82.33;95933.06;4991039;28;20564;-77
2023/12/27 09:49:41;;;;;;;5.87;2.57;;;;;;;7.35;82.10;95939.03;4986925;28;20563;-79
2023/12/27 09:52:07;;;;;;;4.40;2.70;;;;;;;7.41;81.77;95932.56;5008369;28;20183;-78
2023/12/27 09:54:32;;;;;;;5.87;2.37;;;;;;;7.56;80.76;95935.72;5006746;28;20630;-78
2023/12/27 09:57:02;;;;;;;4.20;2.13;;;;;;;7.59;80.39;95922.56;5002886;28;20204;-80
2023/12/27 09:59:28;;;;;;;3.80;2.03;;;;;;;7.70;80.42;95917.38;4999140;28;20184;-81
2023/12/27 10:01:59;;;;;;;5.13;2.20;;;;;;;7.73;79.23;95893.88;4999312;28;20219;-82
2023/12/27 10:04:34;;;;;;;4.83;2.30;;;;;;;8.02;77.92;95878.59;5004043;28;20184;-81
2023/12/27 10:06:59;;;;;;;4.40;1.80;;;;;;;7.98;77.91;95884.16;5000320;28;20210;-82
2023/12/27 10:09:24;;;;;;;4.00;1.60;;;;;;;7.94;77.40;95886.97;4984907;28;20212;-80
2023/12/27 10:11:50;;;;;;;2.90;2.00;;;;;;;8.02;76.39;95877.78;5000662;28;20220;-81
2023/12/27 10:14:16;;;;;;;3.47;2.10;;;;;;;7.92;75.55;95877.69;5004275;28;20176;-81
2023/12/27 10:16:42;;;;;;;5.73;2.00;;;;;;;8.06;75.81;95877.41;5001054;28;20790;-81
2023/12/27 10:19:10;;;;;;;5.53;2.17;;;;;;;8.04;74.71;95876.72;4999764;28;20183;-80
2023/12/27 10:21:42;;;;;;;3.93;1.87;;;;;;;8.35;74.52;95876.84;4998124;28;20184;-81
2023/12/27 10:24:07;;;;;;;2.73;1.93;;;;;;;8.57;73.55;95875.88;5000091;28;20207;-80
2023/12/27 10:26:32;;;;;;;5.33;2.20;;;;;;;8.45;73.49;95867.38;4998394;28;20705;-80
2023/12/27 10:28:59;;;;;;;2.47;1.80;;;;;;;8.86;71.64;95865.69;4988192;28;20211;-82
2023/12/27 10:31:25;;;;;;;6.07;2.00;;;;;;;8.85;71.93;95864.06;4995886;28;20187;-81
2023/12/27 10:33:51;;;;;;;2.87;1.90;;;;;;;9.00;72.49;95853.19;4999375;28;20230;-80
2023/12/27 10:36:17;;;;;;;4.97;2.00;;;;;;;9.29;71.06;95852.50;4982402;28;20263;-82
2023/12/27 10:38:44;;;;;;;4.20;2.07;;;;;;;9.39;70.76;95842.16;4981756;28;20208;-82
2023/12/27 10:41:10;;;;;;;2.47;1.50;;;;;;;9.50;68.79;95836.84;4978280;28;20586;-82
2023/12/27 10:43:35;;;;;;;2.60;1.33;;;;;;;9.63;69.04;95834.84;4975405;28;20191;-80
2023/12/27 10:46:07;;;;;;;2.50;1.37;;;;;;;9.44;68.83;95838.19;4978011;28;20199;-80
2023/12/27 10:48:33;;;;;;;4.30;2.07;;;;;;;9.50;68.86;95829.06;4991614;28;20207;-82
2023/12/27 10:50:58;;;;;;;4.03;1.83;;;;;;;9.63;68.32;95821.88;4987752;28;20179;-79
2023/12/27 10:53:25;;;;;;;3.43;2.10;;;;;;;9.55;68.46;95821.72;4997376;28;20214;-83
2023/12/27 10:55:51;;;;;;;2.57;1.60;;;;;;;9.78;68.09;95815.31;4994089;28;20191;-81
2023/12/27 10:58:19;;;;;;;1.90;1.53;;;;;;;9.88;67.83;95818.72;4977553;28;20179;-81
2023/12/27 11:00:46;;;;;;;2.27;1.50;;;;;;;9.86;66.32;95818.06;4976154;28;20179;-80
2023/12/27 11:03:12;;;;;;;2.23;1.40;;;;;;;9.79;67.08;95811.75;5003820;28;20226;-78
2023/12/27 11:05:39;;;;;;;2.83;1.70;;;;;;;10.13;66.17;95804.38;4986605;28;20634;-77
2023/12/27 11:08:05;;;;;;;3.20;1.77;;;;;;;10.20;65.98;95809.84;4999516;28;20203;-78
2023/12/27 11:10:35;;;;;;;2.77;1.60;;;;;;;10.27;65.36;95823.13;5001263;28;20196;-77
2023/12/27 11:13:01;;;;;;;2.27;1.40;;;;;;;10.35;65.58;95824.06;5002916;28;20188;-78
2023/12/27 11:15:29;;;;;;;2.37;1.70;;;;;;;10.15;66.08;95802.47;5016381;28;20239;-78
2023/12/27 11:17:54;;;;;;;4.33;1.50;;;;;;;10.31;66.09;95791.53;4982510;28;20208;-79
2023/12/27 11:20:20;;;;;;;3.37;1.80;;;;;;;10.35;65.04;95781.72;5002395;28;20189;-77
2023/12/27 11:22:46;;;;;;;4.90;1.70;;;;;;;10.53;65.67;95795.59;4984722;28;20231;-78
2023/12/27 11:25:12;;;;;;;2.60;1.47;;;;;;;10.62;65.15;95784.38;5003271;28;20191;-80
2023/12/27 11:27:38;;;;;;;3.47;1.80;;;;;;;10.42;65.96;95785.38;4982742;28;20270;-77
2023/12/27 11:30:12;;;;;;;3.67;1.70;;;;;;;10.55;65.05;95772.09;4983693;28;20198;-80
2023/12/27 11:32:46;;;;;;;1.83;1.67;;;;;;;10.67;63.87;95765.75;4997690;28;20692;-79
2023/12/27 11:35:25;;;;;;;2.10;1.50;;;;;;;10.66;62.99;95770.13;4995335;28;20560;-79